Time;durP1;ratioP1;P1;durP2;ratioP2;P2;SDS_P1;SDS_P2;PMS_P1;PMS_P2;Temp;Humidity;BMP_temperature;BMP_pressure;BME280_temperature;BME280_humidity;BME280_pressure;Samples;Min_cycle;Max_cycle;Signal;HPM_P1;HPM_P2
2021/09/25 00:02:00;;;;;;;9.70;4.20;;;17.50;99.90;;;;;;5055327;28;25089;-69
2021/09/25 00:04:26;;;;;;;8.45;3.97;;;17.60;99.90;;;;;;5047359;28;25145;-71
2021/09/25 00:06:55;;;;;;;14.68;4.13;;;17.60;99.90;;;;;;5024593;28;25123;-70
2021/09/25 00:09:21;;;;;;;8.07;3.95;;;17.60;99.90;;;;;;5042750;28;25091;-69
2021/09/25 00:11:47;;;;;;;9.43;4.40;;;17.60;99.90;;;;;;5025364;28;25064;-69
2021/09/25 00:14:13;;;;;;;9.13;3.90;;;17.60;99.90;;;;;;5045126;28;25067;-68
2021/09/25 00:16:38;;;;;;;9.98;3.70;;;17.50;99.90;;;;;;5051080;28;25114;-69
2021/09/25 00:19:04;;;;;;;10.35;4.78;;;17.50;99.90;;;;;;5048052;28;25071;-69
2021/09/25 00:21:30;;;;;;;7.43;4.10;;;17.50;99.90;;;;;;5046894;28;25111;-69
2021/09/25 00:23:57;;;;;;;12.13;4.50;;;17.40;99.90;;;;;;5033350;28;25080;-69
2021/09/25 00:26:23;;;;;;;10.00;4.28;;;17.40;99.90;;;;;;5045526;28;25151;-70
2021/09/25 00:28:49;;;;;;;10.77;4.28;;;17.40;99.90;;;;;;5046059;28;25125;-68
2021/09/25 00:31:15;;;;;;;9.75;4.80;;;17.30;99.90;;;;;;5048371;28;25065;-69
2021/09/25 00:33:41;;;;;;;10.05;4.80;;;17.40;99.90;;;;;;5056426;28;25167;-68
2021/09/25 00:36:07;;;;;;;8.05;4.55;;;17.30;99.90;;;;;;5026803;28;25100;-68
2021/09/25 00:38:33;;;;;;;11.35;5.43;;;17.30;99.90;;;;;;5040811;28;25154;-67
2021/09/25 00:40:59;;;;;;;12.45;5.90;;;17.30;99.90;;;;;;5045697;28;25054;-70
2021/09/25 00:43:25;;;;;;;10.52;5.32;;;17.30;99.90;;;;;;5040791;28;25065;-68
2021/09/25 00:45:50;;;;;;;13.00;5.60;;;17.20;99.90;;;;;;5038014;28;25070;-69
2021/09/25 00:48:16;;;;;;;6.63;5.38;;;17.20;99.90;;;;;;5046961;28;25051;-69
2021/09/25 00:50:42;;;;;;;17.65;6.65;;;17.10;99.90;;;;;;5048574;28;25057;-68
2021/09/25 00:53:07;;;;;;;9.85;5.88;;;17.10;99.90;;;;;;5028022;28;25085;-69
2021/09/25 00:55:34;;;;;;;9.63;6.32;;;17.10;99.90;;;;;;5040423;28;25108;-69
2021/09/25 00:58:02;;;;;;;13.63;6.40;;;17.10;99.90;;;;;;5044718;28;25058;-69
2021/09/25 01:00:29;;;;;;;12.10;7.05;;;17.10;99.90;;;;;;5046944;28;25075;-70
2021/09/25 01:02:55;;;;;;;12.13;7.47;;;17.00;99.90;;;;;;5045831;28;25154;-67
2021/09/25 01:05:22;;;;;;;12.52;7.38;;;16.90;99.90;;;;;;5046208;28;25092;-68
2021/09/25 01:07:48;;;;;;;14.93;8.15;;;16.90;99.90;;;;;;5053398;28;25067;-69
2021/09/25 01:10:15;;;;;;;16.60;7.80;;;16.90;99.90;;;;;;5032572;28;25075;-69
2021/09/25 01:12:41;;;;;;;15.63;7.65;;;16.80;99.90;;;;;;5041298;28;25063;-68
2021/09/25 01:15:08;;;;;;;12.60;8.10;;;16.70;99.90;;;;;;5033994;28;25078;-68
2021/09/25 01:17:33;;;;;;;13.07;7.57;;;16.70;99.90;;;;;;5028153;28;25058;-67
2021/09/25 01:20:00;;;;;;;15.90;7.45;;;16.70;99.90;;;;;;5046446;28;25064;-67
2021/09/25 01:22:26;;;;;;;9.90;7.90;;;16.70;99.90;;;;;;5039888;28;25129;-69
2021/09/25 01:24:52;;;;;;;19.88;8.50;;;16.70;99.90;;;;;;5030590;28;25147;-67
2021/09/25 01:27:18;;;;;;;15.90;8.93;;;16.70;99.90;;;;;;5044446;28;25082;-68
2021/09/25 01:29:44;;;;;;;17.02;8.30;;;16.70;99.90;;;;;;5033512;28;25068;-68
2021/09/25 01:32:10;;;;;;;16.67;8.75;;;16.60;99.90;;;;;;5040564;28;25115;-68
2021/09/25 01:34:36;;;;;;;14.32;8.82;;;16.50;99.90;;;;;;5049755;28;25110;-68
2021/09/25 01:37:02;;;;;;;16.45;8.75;;;16.50;99.90;;;;;;5051505;28;25156;-68
2021/09/25 01:39:30;;;;;;;16.25;9.95;;;16.50;99.90;;;;;;5044558;28;25128;-68
2021/09/25 01:41:57;;;;;;;12.23;8.88;;;16.50;99.90;;;;;;5032098;28;25054;-69
2021/09/25 01:44:22;;;;;;;15.10;8.60;;;16.50;99.90;;;;;;5043456;28;25053;-69
2021/09/25 01:46:49;;;;;;;12.70;8.45;;;16.50;99.90;;;;;;5044426;28;25049;-67
2021/09/25 01:49:15;;;;;;;13.15;8.90;;;16.60;99.90;;;;;;5046002;28;25084;-67
2021/09/25 01:51:40;;;;;;;13.02;8.85;;;16.60;99.90;;;;;;5052080;28;25068;-68
2021/09/25 01:54:06;;;;;;;16.20;9.05;;;16.60;99.90;;;;;;5049730;28;25078;-69
2021/09/25 01:56:33;;;;;;;13.80;8.93;;;16.50;99.90;;;;;;5049826;28;25066;-68
2021/09/25 01:58:58;;;;;;;11.10;9.00;;;16.50;99.90;;;;;;5033274;28;25096;-69
2021/09/25 02:01:25;;;;;;;17.65;9.57;;;16.50;99.90;;;;;;5056254;28;25103;-68
2021/09/25 02:03:50;;;;;;;16.00;9.15;;;16.40;99.90;;;;;;5031830;28;25075;-68
2021/09/25 02:06:16;;;;;;;13.43;9.68;;;16.40;99.90;;;;;;5043167;28;25067;-66
2021/09/25 02:08:42;;;;;;;15.73;10.65;;;16.30;99.90;;;;;;5042955;28;25056;-67
2021/09/25 02:11:08;;;;;;;18.40;10.60;;;16.30;99.90;;;;;;5032552;28;25063;-68
2021/09/25 02:13:34;;;;;;;19.73;10.80;;;16.30;99.90;;;;;;5043087;28;25116;-70
2021/09/25 02:15:59;;;;;;;20.27;10.60;;;16.30;99.90;;;;;;5029998;28;25090;-68
2021/09/25 02:18:26;;;;;;;17.77;10.60;;;16.30;99.90;;;;;;5042057;28;25061;-70
2021/09/25 02:20:53;;;;;;;17.90;10.77;;;16.30;99.90;;;;;;5045562;28;25173;-67
2021/09/25 02:23:18;;;;;;;19.08;10.82;;;16.30;99.90;;;;;;5029165;28;25081;-68
2021/09/25 02:25:44;;;;;;;19.20;11.18;;;16.30;99.90;;;;;;5052849;28;25090;-68
2021/09/25 02:28:10;;;;;;;14.63;10.07;;;16.30;99.90;;;;;;5043554;28;25061;-69
2021/09/25 02:30:35;;;;;;;18.40;10.85;;;16.30;99.90;;;;;;5045347;28;25063;-69
2021/09/25 02:33:01;;;;;;;18.75;11.00;;;16.30;99.90;;;;;;5043362;28;25084;-69
2021/09/25 02:35:27;;;;;;;14.38;10.38;;;16.30;99.90;;;;;;5038195;28;25074;-69
2021/09/25 02:37:53;;;;;;;15.60;10.25;;;16.30;99.90;;;;;;5054833;28;25095;-68
2021/09/25 02:40:20;;;;;;;21.70;11.30;;;16.30;99.90;;;;;;5042161;28;25054;-67
2021/09/25 02:42:46;;;;;;;12.48;10.23;;;16.30;99.90;;;;;;5048397;28;25160;-69
2021/09/25 02:45:14;;;;;;;20.67;12.13;;;16.30;99.90;;;;;;5044000;28;25068;-68
2021/09/25 02:47:40;;;;;;;17.70;11.38;;;16.30;99.90;;;;;;5043734;28;25085;-68
2021/09/25 02:50:08;;;;;;;17.60;11.35;;;16.30;99.90;;;;;;5042911;28;25069;-68
2021/09/25 02:52:34;;;;;;;16.92;10.23;;;16.40;99.90;;;;;;5055380;28;25068;-68
2021/09/25 02:54:59;;;;;;;19.38;11.65;;;16.40;99.90;;;;;;5036161;28;25121;-67
2021/09/25 02:57:25;;;;;;;20.45;11.20;;;16.40;99.90;;;;;;5049323;28;25118;-68
2021/09/25 02:59:51;;;;;;;15.20;10.48;;;16.50;99.90;;;;;;5043354;28;25072;-69
2021/09/25 03:02:17;;;;;;;20.45;10.65;;;16.50;99.90;;;;;;5033948;28;25047;-70
2021/09/25 03:04:43;;;;;;;15.20;10.18;;;16.50;99.90;;;;;;5059618;28;25060;-68
2021/09/25 03:07:08;;;;;;;20.65;12.43;;;16.50;99.90;;;;;;5046824;28;25071;-70
2021/09/25 03:09:35;;;;;;;21.63;12.13;;;16.50;99.90;;;;;;5062596;28;25077;-68
2021/09/25 03:12:00;;;;;;;21.00;11.18;;;16.50;99.90;;;;;;5054661;28;25066;-69
2021/09/25 03:14:26;;;;;;;21.33;10.95;;;16.50;99.90;;;;;;5053985;28;25126;-69
2021/09/25 03:16:52;;;;;;;21.67;10.48;;;16.50;99.90;;;;;;5049947;28;25077;-69
2021/09/25 03:19:18;;;;;;;19.38;11.30;;;16.60;99.90;;;;;;5048539;28;25073;-67
2021/09/25 03:21:44;;;;;;;19.83;11.40;;;16.70;99.90;;;;;;5045305;28;25085;-68
2021/09/25 03:24:09;;;;;;;22.52;11.55;;;16.60;99.90;;;;;;5033988;28;25053;-68
2021/09/25 03:26:35;;;;;;;18.05;11.48;;;16.60;99.90;;;;;;5055550;28;25109;-69
2021/09/25 03:29:01;;;;;;;20.98;11.77;;;16.60;99.90;;;;;;5045228;28;25068;-69
2021/09/25 03:31:26;;;;;;;18.98;11.23;;;16.60;99.90;;;;;;5046591;28;25078;-66
2021/09/25 03:33:52;;;;;;;24.42;12.13;;;16.60;99.90;;;;;;5044557;28;25080;-68
2021/09/25 03:36:18;;;;;;;22.38;12.80;;;16.60;99.90;;;;;;5040521;28;25122;-69
2021/09/25 03:38:43;;;;;;;19.98;12.02;;;16.60;99.90;;;;;;5045977;28;25085;-68
2021/09/25 03:41:09;;;;;;;20.50;12.15;;;16.60;99.90;;;;;;5055018;28;25049;-68
2021/09/25 03:43:34;;;;;;;20.95;12.48;;;16.60;99.90;;;;;;5046274;28;25063;-68
2021/09/25 03:46:00;;;;;;;19.92;12.63;;;16.60;99.90;;;;;;5039581;28;25075;-67
2021/09/25 03:48:25;;;;;;;21.00;13.02;;;16.60;99.90;;;;;;5048701;28;25060;-69
2021/09/25 03:50:53;;;;;;;20.50;12.73;;;16.70;99.90;;;;;;5048562;28;25078;-67
2021/09/25 03:53:21;;;;;;;29.63;13.77;;;16.60;99.90;;;;;;5044160;28;25074;-68
2021/09/25 03:55:47;;;;;;;20.90;12.68;;;16.60;99.90;;;;;;5044934;28;25123;-68
2021/09/25 03:58:13;;;;;;;21.88;13.90;;;16.60;99.90;;;;;;5048125;28;25088;-67
2021/09/25 04:00:42;;;;;;;21.73;13.73;;;16.60;99.90;;;;;;5047581;28;25117;-67
2021/09/25 04:03:12;;;;;;;20.40;13.13;;;16.70;99.90;;;;;;5048776;28;25094;-68
2021/09/25 04:05:38;;;;;;;24.80;14.60;;;16.70;99.90;;;;;;5045526;28;25055;-70
2021/09/25 04:08:04;;;;;;;24.10;14.98;;;16.80;99.90;;;;;;5038128;28;25115;-68
2021/09/25 04:10:30;;;;;;;21.23;15.02;;;16.80;99.90;;;;;;5047371;28;25058;-69
2021/09/25 04:12:56;;;;;;;25.45;15.13;;;16.80;99.90;;;;;;5038812;28;25068;-67
2021/09/25 04:15:22;;;;;;;24.23;15.32;;;16.80;99.90;;;;;;5044893;28;25065;-70
2021/09/25 04:17:48;;;;;;;22.73;15.18;;;16.70;99.90;;;;;;5049439;28;25072;-69
2021/09/25 04:20:14;;;;;;;18.00;14.32;;;16.80;99.90;;;;;;5051397;28;25151;-68
2021/09/25 04:22:40;;;;;;;29.70;16.90;;;16.80;99.90;;;;;;5043871;28;25065;-69
2021/09/25 04:25:06;;;;;;;23.35;14.38;;;16.80;99.90;;;;;;5048732;28;25065;-68
2021/09/25 04:27:32;;;;;;;25.90;15.85;;;16.80;99.90;;;;;;5053152;28;25115;-68
2021/09/25 04:29:59;;;;;;;27.67;16.85;;;16.80;99.90;;;;;;5074310;22;25062;-60
2021/09/25 04:32:25;;;;;;;25.42;15.85;;;16.90;99.90;;;;;;5065874;28;25074;-59
2021/09/25 04:34:51;;;;;;;25.10;16.33;;;16.90;99.90;;;;;;5065370;28;25095;-60
2021/09/25 04:37:17;;;;;;;24.83;15.32;;;16.80;99.90;;;;;;5066320;28;25092;-61
2021/09/25 04:39:42;;;;;;;25.83;16.02;;;16.80;99.90;;;;;;5063199;28;25133;-60
2021/09/25 04:42:08;;;;;;;26.83;15.88;;;16.80;99.90;;;;;;5035233;28;25095;-61
2021/09/25 04:44:33;;;;;;;27.58;15.05;;;16.80;99.90;;;;;;5028626;28;25066;-62
2021/09/25 04:46:59;;;;;;;24.35;15.70;;;16.90;99.90;;;;;;5029949;28;25061;-60
2021/09/25 04:49:25;;;;;;;22.90;15.98;;;16.80;99.90;;;;;;5029731;28;25163;-61
2021/09/25 04:51:50;;;;;;;23.17;15.30;;;16.80;99.90;;;;;;5031978;28;25088;-60
2021/09/25 04:54:16;;;;;;;22.63;14.68;;;16.80;99.90;;;;;;5031397;28;25096;-60
2021/09/25 04:56:41;;;;;;;25.25;14.95;;;16.80;99.90;;;;;;5038128;28;25074;-60
2021/09/25 04:59:07;;;;;;;29.05;16.55;;;16.80;99.90;;;;;;5036612;28;25097;-60
2021/09/25 05:01:32;;;;;;;23.25;15.07;;;16.80;99.90;;;;;;5030951;28;25067;-60
2021/09/25 05:04:02;;;;;;;26.70;15.27;;;16.80;99.90;;;;;;5030262;28;25058;-61
2021/09/25 05:06:29;;;;;;;27.33;15.18;;;16.80;99.90;;;;;;5027755;28;25139;-59
2021/09/25 05:08:55;;;;;;;27.05;15.57;;;16.70;99.90;;;;;;5008370;28;25093;-59
2021/09/25 05:11:20;;;;;;;28.10;16.35;;;16.80;99.90;;;;;;5034178;28;25120;-60
2021/09/25 05:13:46;;;;;;;29.15;16.70;;;16.80;99.90;;;;;;5031202;28;25081;-60
2021/09/25 05:16:11;;;;;;;25.70;16.27;;;16.80;99.90;;;;;;5020689;28;25073;-62
2021/09/25 05:18:37;;;;;;;27.58;16.88;;;16.80;99.90;;;;;;5029264;28;25083;-62
2021/09/25 05:21:03;;;;;;;21.65;15.48;;;16.80;99.90;;;;;;5032024;28;25058;-62
2021/09/25 05:23:29;;;;;;;29.45;16.83;;;16.80;99.90;;;;;;5035910;28;25116;-62
2021/09/25 05:25:54;;;;;;;30.80;16.63;;;16.90;99.90;;;;;;5032191;28;25098;-61
2021/09/25 05:28:20;;;;;;;30.52;18.20;;;16.90;99.90;;;;;;5037447;28;25057;-61
2021/09/25 05:30:46;;;;;;;25.05;17.02;;;16.80;99.90;;;;;;5040227;28;25150;-62
2021/09/25 05:33:11;;;;;;;24.55;15.95;;;16.80;99.90;;;;;;5037284;28;25161;-61
2021/09/25 05:35:37;;;;;;;27.92;16.92;;;16.80;99.90;;;;;;5037135;28;25105;-61
2021/09/25 05:38:03;;;;;;;27.98;17.50;;;16.90;99.90;;;;;;5024571;28;25073;-61
2021/09/25 05:40:29;;;;;;;23.13;15.57;;;16.90;99.90;;;;;;5040773;28;25056;-62
2021/09/25 05:42:54;;;;;;;26.20;15.93;;;16.80;99.90;;;;;;5036332;28;25113;-63
2021/09/25 05:45:20;;;;;;;27.73;16.23;;;16.80;99.90;;;;;;5028527;28;25055;-62
2021/09/25 05:47:46;;;;;;;29.77;16.60;;;16.70;99.90;;;;;;5030738;28;25053;-61
2021/09/25 05:50:13;;;;;;;26.40;16.15;;;16.80;99.90;;;;;;5031462;28;25099;-62
2021/09/25 05:52:38;;;;;;;25.83;15.85;;;16.90;99.90;;;;;;5029395;28;25071;-60
2021/09/25 05:55:06;;;;;;;27.48;16.75;;;16.80;99.90;;;;;;5031971;28;25069;-62
2021/09/25 05:57:32;;;;;;;31.25;18.45;;;16.80;99.90;;;;;;5033757;28;25110;-61
2021/09/25 05:59:57;;;;;;;24.60;16.38;;;16.80;99.90;;;;;;5029438;28;25088;-61
2021/09/25 06:02:23;;;;;;;24.65;15.63;;;16.80;99.90;;;;;;5032237;28;25106;-61
2021/09/25 06:04:49;;;;;;;23.70;15.95;;;16.80;99.90;;;;;;5029350;28;25124;-62
2021/09/25 06:07:15;;;;;;;32.67;17.45;;;16.90;99.90;;;;;;5038327;28;25056;-62
2021/09/25 06:09:41;;;;;;;25.65;17.98;;;16.80;99.90;;;;;;5031539;28;25081;-62
2021/09/25 06:12:07;;;;;;;32.28;16.90;;;16.70;99.90;;;;;;5027871;28;25087;-62
2021/09/25 06:14:33;;;;;;;28.02;19.17;;;16.70;99.90;;;;;;5029521;28;25065;-63
2021/09/25 06:16:59;;;;;;;27.73;18.00;;;16.70;99.90;;;;;;5032753;28;25051;-62
2021/09/25 06:19:24;;;;;;;27.25;18.02;;;16.80;99.90;;;;;;5035252;28;25131;-62
2021/09/25 06:21:50;;;;;;;33.05;19.83;;;16.70;99.90;;;;;;5029160;28;25112;-61
2021/09/25 06:24:15;;;;;;;31.25;18.55;;;16.70;99.90;;;;;;5034923;28;25060;-63
2021/09/25 06:26:41;;;;;;;37.47;19.15;;;16.70;99.90;;;;;;5037577;28;25138;-62
2021/09/25 06:29:07;;;;;;;30.40;18.70;;;16.80;99.90;;;;;;5033476;28;25055;-62
2021/09/25 06:31:33;;;;;;;27.92;18.33;;;16.70;99.90;;;;;;5033515;28;25076;-62
2021/09/25 06:33:59;;;;;;;33.83;19.40;;;16.70;99.90;;;;;;5028491;28;25062;-61
2021/09/25 06:36:25;;;;;;;30.65;19.58;;;16.70;99.90;;;;;;5030950;28;25129;-61
2021/09/25 06:38:51;;;;;;;33.83;19.55;;;16.80;99.90;;;;;;5040527;28;25055;-63
2021/09/25 06:41:17;;;;;;;32.97;19.75;;;16.80;99.90;;;;;;5028317;28;25074;-62
2021/09/25 06:43:43;;;;;;;29.60;20.65;;;16.80;99.90;;;;;;5031298;28;25094;-60
2021/09/25 06:46:09;;;;;;;32.78;21.13;;;16.90;99.90;;;;;;5035228;28;25128;-62
2021/09/25 06:48:35;;;;;;;30.10;19.73;;;16.90;99.90;;;;;;5040210;28;25074;-61
2021/09/25 06:51:01;;;;;;;34.85;21.13;;;16.90;99.90;;;;;;5042176;28;25125;-62
2021/09/25 06:53:26;;;;;;;32.22;18.83;;;16.90;99.90;;;;;;5030093;28;25059;-62
2021/09/25 06:55:52;;;;;;;29.70;19.25;;;17.00;99.90;;;;;;5034742;28;25077;-63
2021/09/25 06:58:17;;;;;;;32.60;19.50;;;17.00;99.90;;;;;;5037362;28;25098;-62
2021/09/25 07:00:47;;;;;;;30.60;19.10;;;17.00;99.90;;;;;;5036635;28;25109;-62
2021/09/25 07:03:13;;;;;;;31.15;18.30;;;17.00;99.90;;;;;;5026840;28;25139;-62
2021/09/25 07:05:38;;;;;;;31.17;18.80;;;17.10;99.90;;;;;;5032698;28;25067;-62
2021/09/25 07:08:04;;;;;;;29.27;18.42;;;17.20;99.90;;;;;;5033781;28;25054;-63
2021/09/25 07:10:30;;;;;;;31.95;18.95;;;17.30;99.90;;;;;;5029109;28;25076;-63
2021/09/25 07:12:55;;;;;;;31.83;16.83;;;17.40;99.90;;;;;;5029228;28;25062;-63
2021/09/25 07:15:21;;;;;;;37.33;19.60;;;17.50;99.90;;;;;;5034541;28;25095;-62
2021/09/25 07:17:46;;;;;;;29.35;17.83;;;17.60;99.90;;;;;;5010376;28;25109;-62
2021/09/25 07:20:12;;;;;;;40.80;20.30;;;17.50;99.90;;;;;;5035956;28;25090;-62
2021/09/25 07:22:38;;;;;;;32.67;20.33;;;17.40;99.90;;;;;;5029481;28;25159;-61
2021/09/25 07:25:04;;;;;;;38.58;20.30;;;17.30;99.90;;;;;;5030856;28;25125;-64
2021/09/25 07:27:29;;;;;;;35.30;20.73;;;17.20;99.90;;;;;;5038899;28;25073;-62
2021/09/25 07:29:55;;;;;;;34.15;20.42;;;17.20;99.90;;;;;;5036192;28;25133;-62
2021/09/25 07:32:20;;;;;;;34.83;19.85;;;17.10;99.90;;;;;;5034135;28;25118;-61
2021/09/25 07:34:46;;;;;;;31.35;19.10;;;17.10;99.90;;;;;;5040569;28;25062;-62
2021/09/25 07:37:12;;;;;;;33.85;20.17;;;17.00;99.90;;;;;;5036036;28;25059;-63
2021/09/25 07:39:39;;;;;;;33.33;23.05;;;17.10;99.90;;;;;;5032945;28;25113;-61
2021/09/25 07:42:05;;;;;;;35.08;20.88;;;17.20;99.90;;;;;;5029076;28;25077;-61
2021/09/25 07:44:31;;;;;;;35.45;20.92;;;17.30;99.90;;;;;;5029601;28;25073;-62
2021/09/25 07:46:56;;;;;;;36.83;21.42;;;17.40;99.90;;;;;;5029752;28;25071;-63
2021/09/25 07:49:22;;;;;;;38.97;21.52;;;17.40;99.90;;;;;;5032336;28;25061;-63
2021/09/25 07:51:48;;;;;;;37.13;21.88;;;17.20;99.90;;;;;;5035409;28;25082;-62
2021/09/25 07:54:13;;;;;;;41.10;21.55;;;17.20;99.90;;;;;;5036083;28;25056;-63
2021/09/25 07:56:39;;;;;;;47.83;24.77;;;17.30;99.90;;;;;;5036585;28;25136;-62
2021/09/25 07:59:05;;;;;;;39.53;21.70;;;17.30;99.90;;;;;;5016913;28;25142;-62
2021/09/25 08:01:30;;;;;;;42.90;23.15;;;17.30;99.90;;;;;;5035595;28;25177;-61
2021/09/25 08:03:56;;;;;;;45.90;25.48;;;17.40;99.90;;;;;;5031497;28;25090;-62
2021/09/25 08:06:21;;;;;;;45.47;26.13;;;17.40;99.90;;;;;;5041317;28;25083;-62
2021/09/25 08:08:47;;;;;;;45.53;23.48;;;17.30;99.90;;;;;;5040051;28;25122;-63
2021/09/25 08:11:13;;;;;;;43.45;24.42;;;17.20;99.90;;;;;;5026255;28;25079;-62
2021/09/25 08:13:39;;;;;;;37.63;23.83;;;17.30;99.90;;;;;;5030287;28;25084;-61
2021/09/25 08:16:05;;;;;;;42.40;24.75;;;17.40;99.90;;;;;;5033232;28;25053;-62
2021/09/25 08:18:31;;;;;;;41.90;25.45;;;17.40;99.90;;;;;;5028306;28;25057;-61
2021/09/25 08:20:57;;;;;;;42.33;25.10;;;17.40;99.90;;;;;;5031003;28;25051;-64
2021/09/25 08:23:23;;;;;;;45.75;26.25;;;17.40;99.90;;;;;;5027141;28;25117;-62
2021/09/25 08:25:50;;;;;;;45.92;26.70;;;17.30;99.90;;;;;;5039970;28;25059;-62
2021/09/25 08:28:16;;;;;;;44.45;26.15;;;17.40;99.90;;;;;;5029367;28;25065;-62
2021/09/25 08:30:41;;;;;;;46.80;25.83;;;17.50;99.90;;;;;;5025548;28;25051;-63
2021/09/25 08:33:07;;;;;;;40.72;24.92;;;17.50;99.90;;;;;;5026075;28;25163;-62
2021/09/25 08:35:33;;;;;;;46.08;26.85;;;17.50;99.90;;;;;;5028295;28;25103;-62
2021/09/25 08:37:58;;;;;;;47.28;26.95;;;17.60;99.90;;;;;;5034991;28;25075;-62
2021/09/25 08:40:24;;;;;;;50.97;28.33;;;17.70;99.90;;;;;;5031625;28;25050;-63
2021/09/25 08:42:51;;;;;;;53.78;27.83;;;17.60;99.90;;;;;;5030075;28;25077;-61
2021/09/25 08:45:18;;;;;;;49.67;29.45;;;17.70;99.90;;;;;;5028150;28;25067;-62
2021/09/25 08:47:44;;;;;;;52.25;28.40;;;17.60;99.90;;;;;;5036379;28;25082;-63
2021/09/25 08:50:12;;;;;;;50.28;28.60;;;17.60;99.90;;;;;;5033699;28;25119;-62
2021/09/25 08:52:39;;;;;;;50.15;29.17;;;17.60;99.90;;;;;;5025929;28;25063;-61
2021/09/25 08:55:06;;;;;;;60.13;30.42;;;17.70;99.90;;;;;;5025998;28;25119;-64
2021/09/25 08:57:32;;;;;;;54.97;29.13;;;17.70;99.90;;;;;;5033925;28;25109;-61
2021/09/25 09:00:23;;;;;;;52.10;29.15;;;17.70;99.90;;;;;;5034689;28;25166;-62
2021/09/25 09:02:49;;;;;;;58.45;30.75;;;17.90;99.90;;;;;;5031343;28;25143;-62
2021/09/25 09:05:29;;;;;;;52.67;29.02;;;18.00;99.90;;;;;;5035625;28;25065;-62
2021/09/25 09:07:57;;;;;;;52.28;29.40;;;18.10;99.90;;;;;;5038928;28;25062;-61
2021/09/25 09:10:33;;;;;;;50.25;28.40;;;18.10;99.90;;;;;;5034462;28;25050;-63
2021/09/25 09:12:59;;;;;;;50.15;29.15;;;18.10;99.90;;;;;;5038869;28;25160;-61
2021/09/25 09:15:37;;;;;;;39.08;26.02;;;18.20;99.90;;;;;;5038947;28;24882;-62
2021/09/25 09:18:04;;;;;;;46.10;27.60;;;18.30;99.90;;;;;;5038180;28;25054;-62
2021/09/25 09:20:31;;;;;;;44.83;27.23;;;18.30;99.90;;;;;;5035275;28;25055;-61
2021/09/25 09:23:15;;;;;;;44.83;24.33;;;18.40;99.90;;;;;;5038669;28;25074;-62
2021/09/25 09:25:41;;;;;;;43.00;25.95;;;18.40;99.90;;;;;;5040100;28;25089;-61
2021/09/25 09:28:21;;;;;;;38.70;24.60;;;18.50;99.90;;;;;;5039508;28;25062;-62
2021/09/25 09:30:49;;;;;;;42.88;25.48;;;18.50;99.90;;;;;;5034371;28;25083;-62
2021/09/25 09:33:28;;;;;;;42.38;27.17;;;18.60;99.90;;;;;;5036560;28;25088;-62
2021/09/25 09:35:53;;;;;;;37.97;26.58;;;18.70;99.90;;;;;;5036351;28;25092;-62
2021/09/25 09:38:23;;;;;;;40.75;27.08;;;18.80;99.90;;;;;;5046120;28;25159;-61
2021/09/25 09:40:55;;;;;;;41.53;26.92;;;18.70;99.90;;;;;;5029583;28;25046;-63
2021/09/25 09:43:21;;;;;;;44.03;28.30;;;18.60;99.90;;;;;;5036427;28;25096;-62
2021/09/25 09:45:46;;;;;;;43.92;27.73;;;18.60;99.90;;;;;;5039952;28;25097;-62
2021/09/25 09:48:12;;;;;;;47.22;30.10;;;18.70;99.90;;;;;;5037075;28;25102;-64
2021/09/25 09:50:42;;;;;;;46.00;28.15;;;18.50;99.90;;;;;;5030085;28;25099;-65
2021/09/25 09:53:15;;;;;;;44.17;26.77;;;18.40;99.90;;;;;;5034862;28;25060;-62
2021/09/25 09:55:40;;;;;;;42.13;24.63;;;18.30;99.90;;;;;;5027806;28;25080;-60
2021/09/25 09:58:07;;;;;;;41.30;24.92;;;18.40;99.90;;;;;;5032009;28;25106;-61
2021/09/25 10:00:35;;;;;;;41.03;24.15;;;18.50;99.90;;;;;;5042311;28;25077;-60
2021/09/25 10:03:01;;;;;;;33.22;22.73;;;18.50;99.90;;;;;;5029994;28;25071;-62
2021/09/25 10:05:27;;;;;;;35.20;22.65;;;18.70;99.90;;;;;;5037051;28;25073;-62
2021/09/25 10:07:53;;;;;;;38.35;24.38;;;18.80;99.90;;;;;;5032150;28;25065;-62
2021/09/25 10:10:19;;;;;;;35.67;23.02;;;18.90;99.90;;;;;;5026074;28;25059;-62
2021/09/25 10:12:46;;;;;;;29.63;21.63;;;19.10;99.90;;;;;;5036521;28;25107;-62
2021/09/25 10:15:14;;;;;;;35.50;22.55;;;19.10;99.90;;;;;;5032533;28;25072;-62
2021/09/25 10:17:44;;;;;;;36.92;23.73;;;19.20;99.90;;;;;;5039406;28;25076;-62
2021/09/25 10:20:11;;;;;;;34.47;24.35;;;19.00;99.90;;;;;;5031589;28;25045;-63
2021/09/25 10:22:37;;;;;;;34.80;22.67;;;19.00;99.90;;;;;;5029112;28;25073;-61
2021/09/25 10:25:07;;;;;;;36.28;21.15;;;19.20;99.90;;;;;;5031831;28;25057;-61
2021/09/25 10:27:36;;;;;;;31.77;21.70;;;19.30;99.90;;;;;;5028995;28;25135;-62
2021/09/25 10:32:36;;;;;;;35.65;23.42;;;19.20;99.90;;;;;;5050005;28;25070;-66
2021/09/25 10:35:08;;;;;;;35.53;22.40;;;19.10;99.90;;;;;;5058411;28;25065;-67
2021/09/25 10:37:35;;;;;;;;;;;18.80;99.90;;;;;;5063764;28;29062;-65
2021/09/25 10:40:01;;;;;;;36.13;22.92;;;18.90;99.90;;;;;;5048472;28;24076;-66
2021/09/25 10:42:44;;;;;;;37.03;23.20;;;19.00;99.90;;;;;;5054888;28;25065;-66
2021/09/25 10:45:19;;;;;;;36.35;23.95;;;19.10;99.90;;;;;;5065352;28;25069;-66
2021/09/25 10:47:45;;;;;;;37.55;21.33;;;19.30;99.90;;;;;;5025847;28;25079;-67
2021/09/25 10:50:13;;;;;;;38.75;21.50;;;19.50;99.90;;;;;;5054234;28;25087;-66
2021/09/25 10:53:05;;;;;;;34.20;22.25;;;19.70;99.90;;;;;;5047595;28;25094;-67
2021/09/25 10:55:31;;;;;;;33.53;23.15;;;19.60;99.90;;;;;;5048604;28;25059;-68
2021/09/25 10:58:18;;;;;;;39.33;24.55;;;19.70;99.90;;;;;;5032433;28;25064;-67
2021/09/25 11:00:55;;;;;;;38.42;22.95;;;19.80;99.90;;;;;;5059101;28;25152;-68
2021/09/25 11:03:40;;;;;;;36.95;23.77;;;19.70;99.90;;;;;;5027585;28;25069;-66
2021/09/25 11:06:11;;;;;;;35.33;24.63;;;19.70;99.90;;;;;;5057164;28;25175;-68
2021/09/25 11:08:38;;;;;;;39.30;26.27;;;19.60;99.90;;;;;;5063150;28;25057;-65
2021/09/25 11:11:13;;;;;;;36.03;24.60;;;19.20;99.90;;;;;;5041538;28;25084;-66
2021/09/25 11:14:06;;;;;;;38.38;22.90;;;19.20;99.90;;;;;;5046164;28;25055;-68
2021/09/25 11:16:43;;;;;;;;;;;19.30;99.90;;;;;;5065143;28;25073;-68
2021/09/25 11:19:21;;;;;;;40.50;24.70;;;19.30;99.90;;;;;;5067831;28;25057;-66
2021/09/25 11:22:20;;;;;;;36.92;23.52;;;19.50;99.90;;;;;;5058959;28;25088;-66
2021/09/25 11:24:58;;;;;;;36.85;23.70;;;19.50;99.90;;;;;;5057718;28;25143;-66
2021/09/25 11:27:30;;;;;;;35.95;24.20;;;19.70;99.90;;;;;;5053811;28;25084;-68
2021/09/25 11:30:04;;;;;;;44.63;25.30;;;19.70;99.90;;;;;;5052389;28;25112;-67
2021/09/25 11:32:42;;;;;;;38.75;24.35;;;19.70;99.90;;;;;;5056702;28;25106;-68
2021/09/25 11:35:32;;;;;;;38.67;24.85;;;19.70;99.90;;;;;;5057353;28;25123;-67
2021/09/25 11:38:03;;;;;;;36.35;23.48;;;20.10;99.90;;;;;;5029841;28;25161;-69
2021/09/25 11:40:45;;;;;;;38.33;23.92;;;20.40;99.90;;;;;;5034198;28;25078;-68
2021/09/25 11:43:14;;;;;;;37.92;24.33;;;20.60;99.90;;;;;;5039476;28;25095;-68
2021/09/25 11:45:45;;;;;;;38.83;24.38;;;20.90;99.90;;;;;;5047077;28;25091;-69
2021/09/25 11:48:17;;;;;;;42.03;25.08;;;21.10;99.90;;;;;;5062836;28;25090;-69
2021/09/25 11:50:45;;;;;;;35.92;23.23;;;21.10;99.90;;;;;;5051552;28;25167;-66
2021/09/25 11:53:17;;;;;;;35.83;22.73;;;21.30;99.90;;;;;;5058065;28;25151;-68
2021/09/25 11:55:44;;;;;;;34.90;22.85;;;21.30;99.90;;;;;;5060914;28;25072;-67
2021/09/25 11:58:15;;;;;;;41.38;24.20;;;21.30;99.90;;;;;;5059757;28;25075;-68
2021/09/25 12:00:58;;;;;;;38.80;23.88;;;21.00;99.90;;;;;;5050133;28;25192;-68
2021/09/25 12:03:28;;;;;;;32.55;24.10;;;20.80;99.90;;;;;;5039965;28;25066;-67
2021/09/25 12:05:55;;;;;;;35.35;23.02;;;20.80;99.90;;;;;;5044556;28;25102;-67
2021/09/25 12:08:24;;;;;;;36.92;23.60;;;20.90;99.90;;;;;;5043052;28;25096;-66
2021/09/25 12:10:52;;;;;;;40.88;25.13;;;21.00;99.90;;;;;;5047871;28;25144;-67
2021/09/25 12:13:22;;;;;;;40.10;23.98;;;21.10;99.90;;;;;;5042172;28;25059;-68
2021/09/25 12:15:50;;;;;;;35.92;25.15;;;21.00;99.90;;;;;;5043905;28;25088;-67
2021/09/25 12:18:26;;;;;;;35.40;24.70;;;21.00;99.90;;;;;;5042654;28;25111;-67
2021/09/25 12:21:00;;;;;;;38.75;24.80;;;21.00;99.90;;;;;;5045056;28;25093;-68
2021/09/25 12:23:33;;;;;;;37.40;23.60;;;21.00;99.90;;;;;;5042950;28;25053;-69
2021/09/25 12:26:00;;;;;;;40.78;27.27;;;21.20;99.90;;;;;;5055215;28;25061;-68
2021/09/25 12:28:44;;;;;;;36.72;25.40;;;21.40;99.90;;;;;;5032934;28;25064;-68
2021/09/25 12:31:14;;;;;;;38.15;24.27;;;21.50;99.90;;;;;;5047761;28;25062;-67
2021/09/25 12:33:48;;;;;;;41.75;28.27;;;21.40;99.90;;;;;;5058092;28;25065;-69
2021/09/25 12:36:15;;;;;;;34.67;24.77;;;21.60;99.90;;;;;;5043966;28;25143;-68